Aérodrome :
LOGIN :

S'inscrire | Disclaimer

   EN    FR    IT 

 










Légende :    VFR   VFR Marginal   IFR   IFR Intensif   IFR Très Intensif
Visi : 
Plafond : 
>= 8 km
>= 3000ft
5 à 8 km
1000 à 3000 ft
1500m à 5 km
500 à 1000 ft
800 à 1500m
200 à 500 ft
< 800m
< 200 ft
Symboles :   Orages  Brouillard  Fortes neiges  Fortes précipitations  Vent > 20 kt
SIGMETs :   Divers  Orages  Givrage  Turbulence  Onde Orograph.  Cendres Volcan.






- Altitude de l'aérodrome : 28 ft
- Code IATA : OLA


ENOL - Ørland

DERNIER METAR :
  • 031820Z 25014KT 9999 VCSH FEW012CB SCT045 BKN070 00/M03 Q1001 TEMPO 31025G38KT 0400 +SHSNGS VV004

METARs EXPIRÉS :
  • 031750Z 30016KT 9999 VCSH FEW012CB SCT030 BKN045 01/M05 Q1000 TEMPO 31025G38KT 0400 +SHSNGS VV004
  • 031720Z 29017KT 9999 VCSH FEW012CB SCT030 BKN060 01/M05 Q1000 TEMPO 31025G38KT 0400 +SHSNGS VV004
  • 031650Z 31017KT 9999 VCSH SCT012CB BKN030 01/M02 Q0999 TEMPO 31025G38KT 0400 +SHSNGS VV004
  • 031620Z 26018KT 9999 7000SE -SHSN SCT012CB BKN025 M01/M02 Q0999 RESHSNGS TEMPO 30025G38KT 0500 +SHSNGS VV004
  • 031550Z 26017KT 9999 VCSH SCT012CB BKN080 M00/M03 Q0999 TEMPO 30025G38KT 0500 +SHSNGS VV004

TAF TAF ENOL
Valide du 03 à 18h jusqu'au 04 à 18h UTC


0318/0418 28020KT 9999 FEW012CB BKN030
TEMPO 0318/0410 31025G38KT 0400 +SHSNGS VV004
PROB30
TEMPO 0400/0407 31032G48KT TS
TEMPO 0410/0415 1200 SHSN VV008
BECMG 0415/0418 27010KT



MET'MAP, la Météo Aéronautique d'un coup d'oeil ! - Copyright ORBIFLY Décembre 2007 - Disclaimer

ORBIFLY MET'MAP TEAM :

Programmation & Développement : Alexandra Zaïnal
Sur une idée originale de : Baudouin d'Aumeries
Assistance à la programmation : Marc-Olivier Méhu
Soutien technique & logistique : Manuel Goepfert

Contact : metmap@orbifly.com




SOURCES & CREDITS :

   NOAA